createdAt,value
2024-05-09T00:01:02.622Z,6.57
2024-05-09T00:03:50.055Z,6.46
2024-05-09T00:06:24.851Z,6.42
2024-05-09T00:08:56.982Z,6.39
2024-05-09T00:11:31.463Z,6.36
2024-05-09T00:14:06.603Z,6.34
2024-05-09T00:16:42.008Z,6.32
2024-05-09T00:19:14.952Z,6.28
2024-05-09T00:21:48.706Z,6.26
2024-05-09T00:24:24.610Z,6.23
2024-05-09T00:26:56.502Z,6.18
2024-05-09T00:29:29.931Z,6.17
2024-05-09T00:32:03.194Z,6.15
2024-05-09T00:34:36.344Z,6.13
2024-05-09T00:37:09.263Z,6.08
2024-05-09T00:39:43.237Z,6.03
2024-05-09T00:42:15.114Z,6.01
2024-05-09T00:44:48.552Z,5.97
2024-05-09T00:47:22.368Z,5.91
2024-05-09T00:49:56.929Z,5.90
2024-05-09T00:52:31.398Z,5.88
2024-05-09T00:55:04.018Z,5.86
2024-05-09T00:57:37.414Z,5.83
2024-05-09T01:00:22.653Z,5.81
2024-05-09T01:03:06.095Z,5.76
2024-05-09T01:05:42.533Z,5.74
2024-05-09T01:08:16.367Z,5.71
2024-05-09T01:10:49.806Z,5.69
2024-05-09T01:13:23.349Z,5.66
2024-05-09T01:15:58.172Z,5.64
2024-05-09T01:18:31.518Z,5.61
2024-05-09T01:21:09.683Z,5.58
2024-05-09T01:23:42.675Z,5.55
2024-05-09T01:26:16.124Z,5.53
2024-05-09T01:28:49.693Z,5.49
2024-05-09T01:31:23.752Z,5.45
2024-05-09T01:33:56.707Z,5.42
2024-05-09T01:36:28.727Z,5.40
2024-05-09T01:39:01.537Z,5.38
2024-05-09T01:41:34.253Z,5.35
2024-05-09T01:44:07.453Z,5.33
2024-05-09T01:46:40.678Z,5.30
2024-05-09T01:49:14.295Z,5.27
2024-05-09T01:51:47.335Z,5.22
2024-05-09T01:54:20.754Z,5.19
2024-05-09T01:56:52.665Z,5.18
2024-05-09T01:59:28.327Z,5.16
2024-05-09T02:02:01.735Z,5.13
2024-05-09T02:04:36.934Z,5.09
2024-05-09T02:07:13.120Z,5.05
2024-05-09T02:09:45.150Z,5.03
2024-05-09T02:12:19.801Z,5.01
2024-05-09T02:14:55.144Z,4.99
2024-05-09T02:17:27.790Z,4.97
2024-05-09T02:20:00.970Z,4.96
2024-05-09T02:22:39.117Z,4.95
2024-05-09T02:25:13.701Z,4.92
2024-05-09T02:27:46.491Z,4.90
2024-05-09T02:30:30.111Z,4.88
2024-05-09T02:33:14.426Z,4.83
2024-05-09T02:35:50.244Z,4.80
2024-05-09T02:38:29.273Z,4.78
2024-05-09T02:41:03.292Z,4.76
2024-05-09T02:43:35.720Z,4.74
2024-05-09T02:46:12.506Z,4.73
2024-05-09T02:48:44.988Z,4.73
2024-05-09T02:51:18.495Z,4.73
2024-05-09T02:53:52.538Z,4.70
2024-05-09T02:56:25.476Z,4.68
2024-05-09T02:59:00.299Z,4.65
2024-05-09T03:01:33.514Z,4.61
2024-05-09T03:04:08.046Z,4.59
2024-05-09T03:06:44.367Z,4.58
2024-05-09T03:09:17.967Z,4.58
2024-05-09T03:11:51.761Z,4.59
2024-05-09T03:14:25.786Z,4.58
2024-05-09T03:17:00.147Z,4.58
2024-05-09T03:19:33.856Z,4.58
2024-05-09T03:22:07.093Z,4.58
2024-05-09T03:24:40.692Z,4.58
2024-05-09T03:27:22.399Z,4.59
2024-05-09T03:29:56.043Z,4.59
2024-05-09T03:32:30.296Z,4.60
2024-05-09T03:35:04.608Z,4.61
2024-05-09T03:37:37.421Z,4.62
2024-05-09T03:40:20.890Z,4.64
2024-05-09T03:42:56.527Z,4.65
2024-05-09T03:45:29.956Z,4.68
2024-05-09T03:48:06.953Z,4.71
2024-05-09T03:50:41.333Z,4.76
2024-05-09T03:53:17.582Z,4.80
2024-05-09T03:55:54.172Z,4.80
2024-05-09T03:58:30.014Z,4.79
2024-05-09T04:01:03.343Z,4.84
2024-05-09T04:03:40.373Z,4.94
2024-05-09T04:06:20.991Z,5.04
2024-05-09T04:08:53.689Z,5.12
2024-05-09T04:11:26.425Z,5.18
2024-05-09T04:14:00.555Z,5.28
2024-05-09T04:16:33.864Z,5.39
2024-05-09T04:19:11.287Z,5.50
2024-05-09T04:21:44.505Z,5.58
2024-05-09T04:24:17.025Z,5.66
2024-05-09T04:26:49.783Z,5.77
2024-05-09T04:29:23.670Z,5.87
2024-05-09T04:32:01.670Z,5.96
2024-05-09T04:34:38.918Z,6.04
2024-05-09T04:37:12.553Z,6.14
2024-05-09T04:39:47.057Z,6.26
2024-05-09T04:42:20.991Z,6.37
2024-05-09T04:44:58.277Z,6.47
2024-05-09T04:47:33.315Z,6.56
2024-05-09T04:50:11.862Z,6.63
2024-05-09T04:52:47.772Z,6.72
2024-05-09T04:55:21.245Z,6.81
2024-05-09T04:57:53.795Z,6.88
2024-05-09T05:00:35.245Z,6.95
2024-05-09T05:03:13.858Z,7.02
2024-05-09T05:05:51.795Z,7.10
2024-05-09T05:08:26.724Z,7.16
2024-05-09T05:10:59.568Z,7.25
2024-05-09T05:13:35.605Z,7.36
2024-05-09T05:16:11.690Z,7.48
2024-05-09T05:18:44.903Z,7.58
2024-05-09T05:21:19.379Z,7.67
2024-05-09T05:23:55.108Z,7.75
2024-05-09T05:26:28.788Z,7.87
2024-05-09T05:29:01.397Z,7.99
2024-05-09T05:31:36.828Z,8.12
2024-05-09T05:34:08.581Z,8.28
2024-05-09T05:36:41.470Z,8.43
2024-05-09T05:39:15.016Z,8.57
2024-05-09T05:41:47.818Z,8.72
2024-05-09T05:44:19.962Z,8.86
2024-05-09T05:46:51.392Z,8.97
2024-05-09T05:49:25.941Z,9.08
2024-05-09T05:52:05.795Z,9.21
2024-05-09T05:54:41.801Z,9.32
2024-05-09T05:57:16.532Z,9.43
2024-05-09T05:59:49.775Z,9.55
2024-05-09T06:02:25.349Z,9.71
2024-05-09T06:05:00.359Z,9.94
2024-05-09T06:07:34.446Z,10.18
2024-05-09T06:10:17.239Z,10.38
2024-05-09T06:12:56.038Z,10.47
2024-05-09T06:15:28.685Z,10.55
2024-05-09T06:18:11.479Z,10.59
2024-05-09T06:20:50.193Z,10.65
2024-05-09T06:23:25.334Z,10.70
2024-05-09T06:25:59.208Z,10.78
2024-05-09T06:28:40.562Z,10.86
2024-05-09T06:31:13.052Z,10.92
2024-05-09T06:33:45.856Z,11.00
2024-05-09T06:36:19.942Z,11.07
2024-05-09T06:38:52.959Z,11.13
2024-05-09T06:41:25.803Z,11.18
2024-05-09T06:43:58.567Z,11.22
2024-05-09T06:46:33.338Z,11.29
2024-05-09T06:49:08.458Z,11.36
2024-05-09T06:51:41.838Z,11.37
2024-05-09T06:54:18.236Z,11.40
2024-05-09T06:56:52.211Z,11.45
2024-05-09T06:59:25.758Z,11.53
2024-05-09T07:02:00.686Z,11.61
2024-05-09T07:04:33.133Z,11.70
2024-05-09T07:07:09.203Z,11.77
2024-05-09T07:09:43.331Z,11.81
2024-05-09T07:12:18.514Z,11.86
2024-05-09T07:14:52.135Z,11.93
2024-05-09T07:17:26.664Z,12.02
2024-05-09T07:20:01.100Z,12.10
2024-05-09T07:22:35.372Z,12.18
2024-05-09T07:25:09.461Z,12.27
2024-05-09T07:27:41.016Z,12.34
2024-05-09T07:30:22.925Z,12.42
2024-05-09T07:33:04.570Z,12.53
2024-05-09T07:35:37.994Z,12.59
2024-05-09T07:38:15.374Z,12.61
2024-05-09T07:40:48.332Z,12.68
2024-05-09T07:43:24.945Z,12.78
2024-05-09T07:54:16.223Z,13.18
2024-05-09T07:56:52.854Z,13.25
2024-05-09T07:59:26.023Z,13.33
2024-05-09T08:02:01.901Z,13.42
2024-05-09T08:04:37.065Z,13.53
2024-05-09T08:07:10.896Z,13.66
2024-05-09T08:09:46.156Z,13.76
2024-05-09T08:12:18.034Z,13.87
2024-05-09T08:16:45.149Z,13.98
2024-05-09T08:19:18.720Z,14.03
2024-05-09T08:21:52.426Z,14.18
2024-05-09T08:24:25.556Z,14.29
2024-05-09T08:26:58.881Z,14.46
2024-05-09T08:29:30.809Z,14.68
2024-05-09T08:32:03.291Z,14.92
2024-05-09T08:34:35.663Z,15.20
2024-05-09T08:37:13.261Z,15.42
2024-05-09T08:39:52.260Z,15.57
2024-05-09T08:42:29.052Z,15.68
2024-05-09T08:45:02.630Z,15.82
2024-05-09T08:47:35.827Z,15.93
2024-05-09T08:50:28.547Z,16.05
2024-05-09T08:53:08.076Z,16.16
2024-05-09T08:55:43.877Z,16.22
2024-05-09T08:58:21.203Z,16.26
2024-05-09T09:00:54.945Z,16.30
2024-05-09T09:03:31.971Z,16.42
2024-05-09T09:06:12.207Z,16.51
2024-05-09T09:08:46.852Z,16.58
2024-05-09T09:11:20.075Z,16.64
2024-05-09T09:13:54.254Z,16.67
2024-05-09T09:16:37.726Z,16.70
2024-05-09T09:19:11.346Z,16.69
2024-05-09T09:21:44.397Z,16.67
2024-05-09T09:24:17.464Z,16.70
2024-05-09T09:26:49.994Z,16.75
2024-05-09T09:29:24.063Z,16.79
2024-05-09T09:32:03.952Z,16.92
2024-05-09T09:34:37.891Z,17.02
2024-05-09T09:37:12.798Z,17.12
2024-05-09T09:39:48.924Z,17.21
2024-05-09T09:42:23.713Z,17.31
2024-05-09T09:45:04.834Z,17.43
2024-05-09T09:47:42.841Z,17.51
2024-05-09T09:50:24.032Z,17.51
2024-05-09T09:53:07.936Z,17.64
2024-05-09T09:55:42.988Z,17.78
2024-05-09T09:58:18.131Z,17.83
2024-05-09T10:00:51.627Z,17.84
2024-05-09T10:03:29.808Z,17.89
2024-05-09T10:06:04.589Z,17.87
2024-05-09T10:08:39.004Z,17.88
2024-05-09T10:11:13.511Z,17.92
2024-05-09T10:13:53.339Z,17.95
2024-05-09T10:16:26.482Z,17.98
2024-05-09T10:18:59.690Z,17.99
2024-05-09T10:21:32.782Z,18.00
2024-05-09T10:24:08.107Z,18.08
2024-05-09T10:26:42.049Z,18.08
2024-05-09T10:29:19.820Z,18.02
2024-05-09T10:31:55.390Z,17.92
2024-05-09T10:34:37.435Z,17.83
2024-05-09T10:37:12.036Z,17.74
2024-05-09T10:39:49.255Z,17.76
2024-05-09T10:42:26.093Z,17.82
2024-05-09T10:44:58.963Z,17.77
2024-05-09T10:47:34.343Z,17.65
2024-05-09T10:50:18.288Z,17.63
2024-05-09T10:52:58.348Z,17.66
2024-05-09T10:55:32.544Z,17.76
2024-05-09T10:58:19.418Z,17.74
2024-05-09T11:00:53.272Z,17.69
2024-05-09T11:03:27.126Z,17.74
2024-05-09T11:05:59.926Z,17.79
2024-05-09T11:08:35.454Z,17.81
2024-05-09T11:11:11.380Z,17.81
2024-05-09T11:13:44.744Z,17.83
2024-05-09T11:16:22.610Z,17.86
2024-05-09T11:18:59.901Z,17.86
2024-05-09T11:21:34.833Z,17.86
2024-05-09T11:24:11.016Z,17.78
2024-05-09T11:26:44.943Z,17.76
2024-05-09T11:29:19.719Z,17.79
2024-05-09T11:31:53.743Z,17.85
2024-05-09T11:34:27.452Z,17.89
2024-05-09T11:37:00.895Z,17.86
2024-05-09T11:39:38.670Z,17.83
2024-05-09T11:42:11.753Z,17.85
2024-05-09T11:44:45.306Z,17.85
2024-05-09T11:47:21.567Z,17.84
2024-05-09T11:49:56.250Z,17.87
2024-05-09T11:52:29.358Z,17.93
2024-05-09T11:55:02.752Z,17.97
2024-05-09T11:57:37.275Z,18.02
2024-05-09T12:00:18.275Z,18.05
2024-05-09T12:03:01.108Z,18.00
2024-05-09T12:05:36.301Z,18.06
2024-05-09T12:08:11.944Z,18.15
2024-05-09T12:10:44.626Z,18.20
2024-05-09T12:13:16.965Z,18.24
2024-05-09T12:15:49.537Z,18.28
2024-05-09T12:18:23.541Z,18.31
2024-05-09T12:20:56.553Z,18.33
2024-05-09T12:23:29.858Z,18.36
2024-05-09T12:26:04.012Z,18.41
2024-05-09T12:28:37.585Z,18.45
2024-05-09T12:31:11.076Z,18.46
2024-05-09T12:33:45.124Z,18.49
2024-05-09T12:36:18.972Z,18.52
2024-05-09T12:38:51.852Z,18.53
2024-05-09T12:41:27.575Z,18.51
2024-05-09T12:44:00.868Z,18.53
2024-05-09T12:46:34.530Z,18.53
2024-05-09T12:49:09.395Z,18.53
2024-05-09T12:51:43.900Z,18.53
2024-05-09T12:54:17.830Z,18.48
2024-05-09T12:56:50.895Z,18.45
2024-05-09T12:59:23.772Z,18.44
2024-05-09T13:02:00.432Z,18.46
2024-05-09T13:04:34.158Z,18.48
2024-05-09T13:07:09.655Z,18.51
2024-05-09T13:09:42.279Z,18.55
2024-05-09T13:12:15.354Z,18.59
2024-05-09T13:14:54.478Z,18.59
2024-05-09T13:17:27.682Z,18.56
2024-05-09T13:20:01.263Z,18.55
2024-05-09T13:22:35.587Z,18.56
2024-05-09T13:25:10.165Z,18.59
2024-05-09T13:27:43.180Z,18.63
2024-05-09T13:30:25.830Z,18.62
2024-05-09T13:33:02.767Z,18.66
2024-05-09T13:35:36.477Z,18.70
2024-05-09T13:38:10.143Z,18.73
2024-05-09T13:40:45.346Z,18.70
2024-05-09T13:43:18.959Z,18.74
2024-05-09T13:45:51.805Z,18.80
2024-05-09T13:48:24.653Z,18.86
2024-05-09T13:51:00.222Z,18.92
2024-05-09T13:53:33.174Z,18.96
2024-05-09T13:56:08.556Z,19.01
2024-05-09T13:58:44.546Z,19.06
2024-05-09T14:01:17.463Z,19.08
2024-05-09T14:03:53.046Z,19.09
2024-05-09T14:06:26.990Z,19.12
2024-05-09T14:08:59.277Z,19.15
2024-05-09T14:11:31.793Z,19.17
2024-05-09T14:14:06.395Z,19.11
2024-05-09T14:16:39.446Z,19.07
2024-05-09T14:19:12.552Z,19.09
2024-05-09T14:21:45.773Z,19.12
2024-05-09T14:24:18.048Z,19.15
2024-05-09T14:26:52.864Z,19.16
2024-05-09T14:29:27.612Z,19.16
2024-05-09T14:32:01.449Z,19.14
2024-05-09T14:34:35.325Z,19.17
2024-05-09T14:37:09.142Z,19.19
2024-05-09T14:39:43.788Z,19.20
2024-05-09T14:42:16.539Z,19.22
2024-05-09T14:44:49.288Z,19.28
2024-05-09T14:47:24.168Z,19.31
2024-05-09T14:49:57.494Z,19.30
2024-05-09T14:52:31.454Z,19.37
2024-05-09T14:55:04.152Z,19.41
2024-05-09T14:57:37.875Z,19.45
2024-05-09T15:00:21.352Z,19.50
2024-05-09T15:03:01.051Z,19.53
2024-05-09T15:05:33.822Z,19.55
2024-05-09T15:08:12.508Z,19.57
2024-05-09T15:10:46.105Z,19.61
2024-05-09T15:13:20.999Z,19.64
2024-05-09T15:15:56.647Z,19.67
2024-05-09T15:18:29.559Z,19.72
2024-05-09T15:21:04.483Z,19.77
2024-05-09T15:23:39.829Z,19.80
2024-05-09T15:26:13.747Z,19.82
2024-05-09T15:28:48.271Z,19.86
2024-05-09T15:31:21.210Z,19.91
2024-05-09T15:33:53.101Z,19.92
2024-05-09T15:36:25.778Z,19.93
2024-05-09T15:38:59.532Z,19.95
2024-05-09T15:41:34.320Z,19.94
2024-05-09T15:44:08.784Z,19.94
2024-05-09T15:46:42.099Z,19.95
2024-05-09T15:49:15.822Z,19.96
2024-05-09T15:51:49.011Z,19.99
2024-05-09T15:54:22.939Z,20.05
2024-05-09T15:56:58.973Z,20.12
2024-05-09T15:59:31.762Z,20.17
2024-05-09T16:02:11.535Z,20.23
2024-05-09T16:04:47.549Z,20.27
2024-05-09T16:07:22.917Z,20.29
2024-05-09T16:09:56.903Z,20.25
2024-05-09T16:12:33.171Z,20.27
2024-05-09T16:15:06.673Z,20.32
2024-05-09T16:17:38.798Z,20.38
2024-05-09T16:20:18.323Z,20.38
2024-05-09T16:22:59.773Z,20.39
2024-05-09T16:25:34.998Z,20.44
2024-05-09T16:28:11.190Z,20.46
2024-05-09T16:30:46.954Z,20.44
2024-05-09T16:33:23.705Z,20.44
2024-05-09T16:35:56.653Z,20.42
2024-05-09T16:38:31.455Z,20.39
2024-05-09T16:41:03.685Z,20.31
2024-05-09T16:43:37.828Z,20.26
2024-05-09T16:46:11.041Z,20.23
2024-05-09T16:48:45.719Z,20.19
2024-05-09T16:51:20.778Z,20.14
2024-05-09T16:53:54.175Z,20.08
2024-05-09T16:56:28.716Z,20.00
2024-05-09T16:59:04.118Z,19.93
2024-05-09T17:01:36.939Z,19.90
2024-05-09T17:04:09.787Z,19.85
2024-05-09T17:06:44.901Z,19.81
2024-05-09T17:09:20.137Z,19.75
2024-05-09T17:11:54.681Z,19.68
2024-05-09T17:14:28.715Z,19.61
2024-05-09T17:17:03.502Z,19.56
2024-05-09T17:19:42.304Z,19.50
2024-05-09T17:22:15.326Z,19.44
2024-05-09T17:24:49.651Z,19.38
2024-05-09T17:27:29.825Z,19.30
2024-05-09T17:30:06.046Z,19.18
2024-05-09T17:32:39.715Z,19.07
2024-05-09T17:35:13.160Z,19.00
2024-05-09T17:37:45.856Z,18.96
2024-05-09T17:40:30.018Z,18.90
2024-05-09T17:43:06.962Z,18.83
2024-05-09T17:45:43.332Z,18.76
2024-05-09T17:48:16.598Z,18.65
2024-05-09T17:50:51.351Z,18.56
2024-05-09T17:53:24.190Z,18.47
2024-05-09T17:55:56.939Z,18.41
2024-05-09T17:58:28.832Z,18.34
2024-05-09T18:01:02.911Z,18.26
2024-05-09T18:03:35.415Z,18.18
2024-05-09T18:06:09.164Z,18.13
2024-05-09T18:08:42.686Z,18.06
2024-05-09T18:11:17.512Z,17.98
2024-05-09T18:13:50.719Z,17.90
2024-05-09T18:16:26.508Z,17.81
2024-05-09T18:19:00.606Z,17.72
2024-05-09T18:21:33.821Z,17.62
2024-05-09T18:24:10.070Z,17.53
2024-05-09T18:26:44.184Z,17.43
2024-05-09T18:29:21.750Z,17.34
2024-05-09T18:31:56.354Z,17.23
2024-05-09T18:34:29.593Z,17.14
2024-05-09T18:37:04.415Z,16.98
2024-05-09T18:39:37.629Z,16.81
2024-05-09T18:42:24.010Z,16.68
2024-05-09T18:44:55.030Z,16.60
2024-05-09T18:47:28.287Z,16.54
2024-05-09T18:50:02.153Z,16.46
2024-05-09T18:52:35.776Z,16.38
2024-05-09T18:55:08.715Z,16.31
2024-05-09T18:57:42.389Z,16.21
2024-05-09T19:00:30.775Z,16.13
2024-05-09T19:03:11.074Z,16.03
2024-05-09T19:05:47.400Z,15.95
2024-05-09T19:08:21.817Z,15.86
2024-05-09T19:10:54.894Z,15.81
2024-05-09T19:13:29.155Z,15.75
2024-05-09T19:16:02.933Z,15.70
2024-05-09T19:18:36.721Z,15.64
2024-05-09T19:21:10.393Z,15.58
2024-05-09T19:23:47.269Z,15.50
2024-05-09T19:26:25.213Z,15.42
2024-05-09T19:28:58.253Z,15.35
2024-05-09T19:31:29.945Z,15.29
2024-05-09T19:34:04.354Z,15.24
2024-05-09T19:36:39.179Z,15.18
2024-05-09T19:39:11.922Z,15.13
2024-05-09T19:41:43.958Z,15.05
2024-05-09T19:44:15.979Z,14.99
2024-05-09T19:46:49.059Z,14.93
2024-05-09T19:49:22.359Z,14.86
2024-05-09T19:51:55.322Z,14.83
2024-05-09T19:54:27.645Z,14.79
2024-05-09T19:57:00.508Z,14.73
2024-05-09T19:59:33.616Z,14.67
2024-05-09T20:02:09.166Z,14.62
2024-05-09T20:04:44.847Z,14.57
2024-05-09T20:07:20.728Z,14.53
2024-05-09T20:09:55.492Z,14.49
2024-05-09T20:12:29.316Z,14.44
2024-05-09T20:15:02.521Z,14.40
2024-05-09T20:17:35.237Z,14.36
2024-05-09T20:20:16.754Z,14.34
2024-05-09T20:22:57.011Z,14.26
2024-05-09T20:25:29.831Z,14.19
2024-05-09T20:28:01.923Z,14.14
2024-05-09T20:30:39.686Z,14.11
2024-05-09T20:33:14.356Z,14.07
2024-05-09T20:35:46.722Z,14.02
2024-05-09T20:38:18.519Z,13.97
2024-05-09T20:40:51.708Z,13.93
2024-05-09T20:43:24.148Z,13.89
2024-05-09T20:45:57.756Z,13.85
2024-05-09T20:48:30.531Z,13.77
2024-05-09T20:51:05.200Z,13.72
2024-05-09T20:53:37.380Z,13.67
2024-05-09T20:56:11.872Z,13.59
2024-05-09T20:58:44.920Z,13.55
2024-05-09T21:01:18.211Z,13.50
2024-05-09T21:03:52.693Z,13.47
2024-05-09T21:06:25.515Z,13.41
2024-05-09T21:08:58.451Z,13.35
2024-05-09T21:11:31.870Z,13.31
2024-05-09T21:14:04.794Z,13.26
2024-05-09T21:16:38.806Z,13.21
2024-05-09T21:19:12.688Z,13.16
2024-05-09T21:21:46.015Z,13.10
2024-05-09T21:24:19.205Z,13.06
2024-05-09T21:26:51.356Z,13.00
2024-05-09T21:29:23.950Z,12.94
2024-05-09T21:31:57.351Z,12.87
2024-05-09T21:34:30.305Z,12.82
2024-05-09T21:37:03.178Z,12.79
2024-05-09T21:39:36.070Z,12.74
2024-05-09T21:42:11.926Z,12.69
2024-05-09T21:44:44.328Z,12.65
2024-05-09T21:47:17.102Z,12.60
2024-05-09T21:49:49.375Z,12.56
2024-05-09T21:52:22.710Z,12.53
2024-05-09T21:54:58.103Z,12.48
2024-05-09T21:57:30.047Z,12.42
2024-05-09T22:00:03.267Z,12.38
2024-05-09T22:02:37.612Z,12.33
2024-05-09T22:05:13.551Z,12.27
2024-05-09T22:07:47.452Z,12.22
2024-05-09T22:10:26.273Z,12.16
2024-05-09T22:13:05.112Z,12.01
2024-05-09T22:15:41.380Z,11.95
2024-05-09T22:18:14.142Z,11.94
2024-05-09T22:20:47.086Z,11.90
2024-05-09T22:23:21.620Z,11.87
2024-05-09T22:25:55.993Z,11.84
2024-05-09T22:28:28.376Z,11.82
2024-05-09T22:31:02.593Z,11.78
2024-05-09T22:33:35.535Z,11.75
2024-05-09T22:36:09.708Z,11.73
2024-05-09T22:38:43.880Z,11.73
2024-05-09T22:41:16.301Z,11.73
2024-05-09T22:43:51.340Z,11.72
2024-05-09T22:46:25.942Z,11.70
2024-05-09T22:48:59.241Z,11.68
2024-05-09T22:51:33.714Z,11.65
2024-05-09T22:54:07.594Z,11.62
2024-05-09T22:56:43.647Z,11.59
2024-05-09T22:59:17.391Z,11.56
2024-05-09T23:01:50.450Z,11.52
2024-05-09T23:04:26.381Z,11.47
2024-05-09T23:06:58.495Z,11.44
2024-05-09T23:09:31.797Z,11.40
2024-05-09T23:12:05.845Z,11.37
2024-05-09T23:14:39.925Z,11.34
2024-05-09T23:17:13.557Z,11.30
2024-05-09T23:19:51.245Z,11.26
2024-05-09T23:22:25.288Z,11.23
2024-05-09T23:25:02.157Z,11.20
2024-05-09T23:27:34.574Z,11.17
2024-05-09T23:30:12.523Z,11.14
2024-05-09T23:32:48.180Z,11.10
2024-05-09T23:35:21.934Z,11.08
2024-05-09T23:37:55.488Z,11.07
2024-05-09T23:40:37.779Z,11.05
2024-05-09T23:43:16.569Z,11.02
2024-05-09T23:45:50.689Z,10.99
2024-05-09T23:48:23.934Z,10.97
2024-05-09T23:50:56.252Z,10.95
2024-05-09T23:53:29.260Z,10.93
2024-05-09T23:56:02.451Z,10.90
2024-05-09T23:58:34.934Z,10.87
